Soaring Guidance
Issued by NWS Reno, NV

Home | Current Version | Previous Version | Text Only | Print | Product List | Glossary On
Versions: 1 2 3 4 5 6 7
000
UXUS97 KREV 291346
SRGREV

SOARING FORECAST
NATIONAL WEATHER SERVICE - RENO NV
700 AM PDT MON MAY 29 2017

THIS SOARING FORECAST IS FOR THE EASTERN SIERRA AND WESTERN NEVADA
WITH SPECIFIC INDICES FOR THE GREATER RENO AREA.

THIS FORECAST IS PREPARED DAILY BY 700 AM AND IS NOT UPDATED.

FOR CURRENT FLIGHT CONDITIONS...FORECASTS...AND ADVISORIES...ACCESS
YOUR LOCAL BRIEFING OUTLET OR FLIGHT SERVICE STATION.

*******************************************************************
FORECASTED LOCAL INDICES FOR RENO:        TODAY     YESTERDAY
FORECASTED MAX TEMP AT RENO (DEG F).....     89          85
FORECASTED TRIGGER TEMPERATURE (DEG F)..     74          70
   EXCEEDED YESTERDAY BY 1055 AM PDT
FORECASTED MAXIMUM ALTITUDE (FT MSL)....  17600       16800
FORECASTED SOARING INDEX (FPM)..........   1128        1074
FORECASTED K-INDEX.........VALID 18Z....     14          11
FORECASTED K-INDEX.........VALID 00Z....     20          13
FORECASTED LIFTED INDEX....VALID 18Z....      2           4
FORECASTED LIFTED INDEX....VALID 00Z....     -1           2

AFTERNOON WINDS ALOFT FORECAST
MSL (FT) WIND/TEMP
9000  9900/+14
10000 9902/+11
12000 1605/+05
14000 1706/-01
16000 1807/-07
18000 20 8/-14
24000 2012/-26
30000 1922/-42
34000 1827/-52
39000 1826/-60

SLIDE MOUNTAIN DATA:
     DATE       TIME     TEMP  DEWPT   RH         WIND (MPH)
                        (F)   (F)           | DIR  SPEED GUST
2017-05-29    05:20      48    27     31    | 005   20   25
2017-05-29    05:00      48    27     31    | 005   18   25
2017-05-29    04:50      47    28     35    | 343   18   21
2017-05-29    04:30      48    28     34    | 340   18   22

RENO TAF FORECAST:
KRNO 291130Z 2912/3012 VRB04KT P6SM SKC
     FM292300 29011KT P6SM SCT080 BKN200
     FM300500 VRB03KT P6SM SKC

CARSON CITY TAF FORECAST:
KCXP 291130Z 2912/3012 11008KT P6SM SKC
     FM292200 26011KT P6SM SCT080 BKN200
     FM300400 VRB04KT P6SM SCT200

OUTLOOK FOR THE RENO-CARSON CITY-MINDEN AREA:
.TUESDAY...SUNNY IN THE MORNING THEN BECOMING PARTLY CLOUDY.
HIGHS 81 TO 91. LIGHT WINDS BECOMING SOUTHWEST 10 TO 20 MPH WITH
GUSTS UP TO 35 MPH IN THE AFTERNOON.

SUNRISE AND SUNSET
MAY 29 2017...........SUNRISE   535 AM PDT   SUNSET   818 PM PDT
MAY 30 2017...........SUNRISE   535 AM PDT   SUNSET   819 PM PDT



USA.gov is the U.S. government's official web portal to all federal, state and local government web resources and services.